Talavera de la Reina, Spain
Current Conditions -  °F | °C
As of 10:00 PM on Friday 24 Oct 2014 (Local Time) from LEVS Reporting Station
Clear Clear  
Wind Chill: 70°   Ceiling: Unl
Heat Index: 70°   Visibility: 6mi
Dew Point: 45°   Wind: 3mph
Humidity: 40%   Direction: 360°N
Pressure: 30.12"   Gusts: NA
Location:  39.96°N, 4.83°W
Report Text: LEVS 242000Z 36003KT 320V030 CAVOK 21/07 Q1020
Loading
Personal Weather Stations






























Interactive Weather Map
Tropical Storm Tracking
New forecast layout! Learn more

10-Day Weather Forecast

Advertisements
Track Severe Weather on mobile